LGKL

Details ICAO LGKL (KLX)
Name KALAMATA
Region Greece
Timezone Europe/Athens (UTC+2.0)
Plans Departing 42
Arriving 50
Stats Elevation 26 ft / 8 m (AMSL)
Location 37.068320° 22.025523°
Runways 1
Magnetic Variation 4.162° E
Sunrise 2017-12-15 05:39:28 UTC / 2017-12-15 07:39:28 Local
Sunset 2017-12-15 15:17:22 UTC / 2017-12-15 17:17:22 Local
Advertisement - Login to hide

Runways

ID Width Length Bearing (true) Bearing (mag) Surface Threshold Offset Overrun Length
17R 148 ft / 45 m 9,274 ft / 2,827 m 169.51° 165.35° Asphalt 240 ft / 73 m 320 ft / 98 m
35L 148 ft / 45 m 9,274 ft / 2,827 m 349.51° 345.35° Asphalt 250 ft / 76 m 310 ft / 94 m

Map

Weather


0- 5 10 15 20 25 30 35+ Temperature / ° C

Clouds and Precipitation
Forecast for 2017-12-15 06:00 UTC. Updated an hour ago

Ground ~20,000 ft ~40,000 ft Winds

METAR

LGKL 150550Z 00000KT 7000 3500N BR FEW025 SCT035 08/06 Q1019

TAF

Not found

Frequencies

Tower 122.10 MHz TWR
Approach 120.75 MHz APP
Tower 120.75 MHz TWR
Approach 122.10 MHz APP
Warning: Do not use this data for real-world aviation or navigation. No guarantee of current accuracy is given.